sensor_id;sensor_type;location;lat;lon;timestamp;P1;durP1;ratioP1;P2;durP2;ratioP2
49722;SDS011;43484;43.608;1.458;2023-11-18T00:01:59;16.30;;;8.18;;
49722;SDS011;43484;43.608;1.458;2023-11-18T00:04:26;17.95;;;7.38;;
49722;SDS011;43484;43.608;1.458;2023-11-18T00:06:53;22.65;;;7.70;;
49722;SDS011;43484;43.608;1.458;2023-11-18T00:09:20;16.58;;;7.28;;
49722;SDS011;43484;43.608;1.458;2023-11-18T00:11:48;26.58;;;7.85;;
49722;SDS011;43484;43.608;1.458;2023-11-18T00:14:15;13.95;;;6.28;;
49722;SDS011;43484;43.608;1.458;2023-11-18T00:16:42;12.93;;;7.00;;
49722;SDS011;43484;43.608;1.458;2023-11-18T00:19:08;17.13;;;7.32;;
49722;SDS011;43484;43.608;1.458;2023-11-18T00:21:35;22.02;;;6.35;;
49722;SDS011;43484;43.608;1.458;2023-11-18T00:24:02;18.45;;;7.22;;
49722;SDS011;43484;43.608;1.458;2023-11-18T00:26:30;14.55;;;6.75;;
49722;SDS011;43484;43.608;1.458;2023-11-18T00:28:57;21.20;;;8.20;;
49722;SDS011;43484;43.608;1.458;2023-11-18T00:31:23;20.98;;;7.80;;
49722;SDS011;43484;43.608;1.458;2023-11-18T00:33:51;15.10;;;7.25;;
49722;SDS011;43484;43.608;1.458;2023-11-18T00:36:18;15.27;;;6.75;;
49722;SDS011;43484;43.608;1.458;2023-11-18T00:38:45;20.63;;;7.85;;
49722;SDS011;43484;43.608;1.458;2023-11-18T00:41:12;17.05;;;7.10;;
49722;SDS011;43484;43.608;1.458;2023-11-18T00:43:39;27.98;;;7.25;;
49722;SDS011;43484;43.608;1.458;2023-11-18T00:46:06;14.93;;;6.63;;
49722;SDS011;43484;43.608;1.458;2023-11-18T00:48:32;18.42;;;7.15;;
49722;SDS011;43484;43.608;1.458;2023-11-18T00:50:59;15.77;;;8.18;;
49722;SDS011;43484;43.608;1.458;2023-11-18T00:53:26;15.20;;;7.90;;
49722;SDS011;43484;43.608;1.458;2023-11-18T00:55:53;18.70;;;8.02;;
49722;SDS011;43484;43.608;1.458;2023-11-18T00:58:19;19.05;;;7.85;;
49722;SDS011;43484;43.608;1.458;2023-11-18T01:00:46;19.73;;;7.70;;
49722;SDS011;43484;43.608;1.458;2023-11-18T01:03:13;19.75;;;8.32;;
49722;SDS011;43484;43.608;1.458;2023-11-18T01:05:39;20.63;;;8.98;;
49722;SDS011;43484;43.608;1.458;2023-11-18T01:08:07;20.40;;;9.73;;
49722;SDS011;43484;43.608;1.458;2023-11-18T01:10:33;25.75;;;11.45;;
49722;SDS011;43484;43.608;1.458;2023-11-18T01:13:00;24.88;;;10.60;;
49722;SDS011;43484;43.608;1.458;2023-11-18T01:15:28;21.42;;;11.35;;
49722;SDS011;43484;43.608;1.458;2023-11-18T01:17:54;20.20;;;11.25;;
49722;SDS011;43484;43.608;1.458;2023-11-18T01:20:21;22.23;;;11.30;;
49722;SDS011;43484;43.608;1.458;2023-11-18T01:22:48;26.45;;;12.98;;
49722;SDS011;43484;43.608;1.458;2023-11-18T01:25:16;22.10;;;11.90;;
49722;SDS011;43484;43.608;1.458;2023-11-18T01:27:45;28.45;;;13.38;;
49722;SDS011;43484;43.608;1.458;2023-11-18T01:30:15;28.58;;;14.20;;
49722;SDS011;43484;43.608;1.458;2023-11-18T01:32:41;26.52;;;13.35;;
49722;SDS011;43484;43.608;1.458;2023-11-18T01:35:09;31.83;;;13.93;;
49722;SDS011;43484;43.608;1.458;2023-11-18T01:37:37;27.50;;;13.57;;
49722;SDS011;43484;43.608;1.458;2023-11-18T01:40:05;22.75;;;11.95;;
49722;SDS011;43484;43.608;1.458;2023-11-18T01:42:34;32.70;;;12.93;;
49722;SDS011;43484;43.608;1.458;2023-11-18T01:45:01;24.05;;;11.80;;
49722;SDS011;43484;43.608;1.458;2023-11-18T01:47:33;25.75;;;11.95;;
49722;SDS011;43484;43.608;1.458;2023-11-18T01:50:00;22.50;;;12.98;;
49722;SDS011;43484;43.608;1.458;2023-11-18T01:52:28;25.70;;;12.45;;
49722;SDS011;43484;43.608;1.458;2023-11-18T01:54:57;32.95;;;12.50;;
49722;SDS011;43484;43.608;1.458;2023-11-18T01:57:25;26.75;;;12.45;;
49722;SDS011;43484;43.608;1.458;2023-11-18T01:59:53;25.33;;;12.80;;
49722;SDS011;43484;43.608;1.458;2023-11-18T02:02:21;25.10;;;11.68;;
49722;SDS011;43484;43.608;1.458;2023-11-18T02:04:48;25.60;;;11.20;;
49722;SDS011;43484;43.608;1.458;2023-11-18T02:07:15;20.58;;;11.45;;
49722;SDS011;43484;43.608;1.458;2023-11-18T02:09:41;28.98;;;11.73;;
49722;SDS011;43484;43.608;1.458;2023-11-18T02:15:14;22.27;;;10.52;;
49722;SDS011;43484;43.608;1.458;2023-11-18T02:17:42;30.98;;;12.10;;
49722;SDS011;43484;43.608;1.458;2023-11-18T02:20:11;24.02;;;12.25;;
49722;SDS011;43484;43.608;1.458;2023-11-18T02:22:47;27.20;;;10.98;;
49722;SDS011;43484;43.608;1.458;2023-11-18T02:25:15;25.60;;;10.60;;
49722;SDS011;43484;43.608;1.458;2023-11-18T02:27:42;20.48;;;9.80;;
49722;SDS011;43484;43.608;1.458;2023-11-18T02:30:09;22.30;;;9.48;;
49722;SDS011;43484;43.608;1.458;2023-11-18T02:37:53;20.02;;;9.32;;
49722;SDS011;43484;43.608;1.458;2023-11-18T02:40:29;20.13;;;9.45;;
49722;SDS011;43484;43.608;1.458;2023-11-18T02:43:02;22.25;;;9.50;;
49722;SDS011;43484;43.608;1.458;2023-11-18T02:45:31;21.55;;;9.65;;
49722;SDS011;43484;43.608;1.458;2023-11-18T02:47:58;16.95;;;9.88;;
49722;SDS011;43484;43.608;1.458;2023-11-18T02:50:25;14.68;;;9.23;;
49722;SDS011;43484;43.608;1.458;2023-11-18T02:52:53;23.73;;;11.55;;
49722;SDS011;43484;43.608;1.458;2023-11-18T02:55:20;25.88;;;11.20;;
49722;SDS011;43484;43.608;1.458;2023-11-18T02:57:49;19.50;;;10.48;;
49722;SDS011;43484;43.608;1.458;2023-11-18T03:00:18;18.98;;;10.90;;
49722;SDS011;43484;43.608;1.458;2023-11-18T03:02:48;20.88;;;10.50;;
49722;SDS011;43484;43.608;1.458;2023-11-18T03:05:18;20.60;;;9.90;;
49722;SDS011;43484;43.608;1.458;2023-11-18T03:07:45;17.95;;;9.32;;
49722;SDS011;43484;43.608;1.458;2023-11-18T03:10:16;17.92;;;9.73;;
49722;SDS011;43484;43.608;1.458;2023-11-18T03:12:53;17.40;;;9.55;;
49722;SDS011;43484;43.608;1.458;2023-11-18T03:15:20;18.05;;;8.75;;
49722;SDS011;43484;43.608;1.458;2023-11-18T03:17:49;18.15;;;8.88;;
49722;SDS011;43484;43.608;1.458;2023-11-18T03:20:17;18.17;;;8.82;;
49722;SDS011;43484;43.608;1.458;2023-11-18T03:22:49;15.00;;;8.73;;
49722;SDS011;43484;43.608;1.458;2023-11-18T03:25:18;22.17;;;9.60;;
49722;SDS011;43484;43.608;1.458;2023-11-18T03:27:48;15.55;;;7.93;;
49722;SDS011;43484;43.608;1.458;2023-11-18T03:30:15;16.40;;;8.70;;
49722;SDS011;43484;43.608;1.458;2023-11-18T03:32:43;13.07;;;8.13;;
49722;SDS011;43484;43.608;1.458;2023-11-18T03:35:10;14.68;;;7.93;;
49722;SDS011;43484;43.608;1.458;2023-11-18T03:37:38;17.27;;;7.70;;
49722;SDS011;43484;43.608;1.458;2023-11-18T03:40:08;17.10;;;8.65;;
49722;SDS011;43484;43.608;1.458;2023-11-18T03:42:36;16.77;;;7.65;;
49722;SDS011;43484;43.608;1.458;2023-11-18T03:45:03;13.38;;;6.88;;
49722;SDS011;43484;43.608;1.458;2023-11-18T03:47:31;16.17;;;7.70;;
49722;SDS011;43484;43.608;1.458;2023-11-18T03:49:58;16.15;;;7.85;;
49722;SDS011;43484;43.608;1.458;2023-11-18T03:52:25;17.10;;;7.55;;
49722;SDS011;43484;43.608;1.458;2023-11-18T03:54:52;19.98;;;7.47;;
49722;SDS011;43484;43.608;1.458;2023-11-18T03:57:18;20.52;;;8.10;;
49722;SDS011;43484;43.608;1.458;2023-11-18T03:59:45;12.80;;;7.65;;
49722;SDS011;43484;43.608;1.458;2023-11-18T04:02:12;20.65;;;8.18;;
49722;SDS011;43484;43.608;1.458;2023-11-18T04:04:38;15.27;;;8.15;;
49722;SDS011;43484;43.608;1.458;2023-11-18T04:07:05;14.80;;;7.50;;
49722;SDS011;43484;43.608;1.458;2023-11-18T04:09:33;17.27;;;9.38;;
49722;SDS011;43484;43.608;1.458;2023-11-18T04:11:59;17.23;;;8.57;;
49722;SDS011;43484;43.608;1.458;2023-11-18T04:14:26;15.50;;;8.73;;
49722;SDS011;43484;43.608;1.458;2023-11-18T04:16:53;15.32;;;9.30;;
49722;SDS011;43484;43.608;1.458;2023-11-18T04:19:21;17.90;;;9.63;;
49722;SDS011;43484;43.608;1.458;2023-11-18T04:21:47;19.83;;;9.82;;
49722;SDS011;43484;43.608;1.458;2023-11-18T04:24:15;18.98;;;8.52;;
49722;SDS011;43484;43.608;1.458;2023-11-18T04:26:42;17.70;;;9.00;;
49722;SDS011;43484;43.608;1.458;2023-11-18T04:29:08;20.90;;;9.95;;
49722;SDS011;43484;43.608;1.458;2023-11-18T04:31:35;18.20;;;8.88;;
49722;SDS011;43484;43.608;1.458;2023-11-18T04:34:03;22.25;;;9.10;;
49722;SDS011;43484;43.608;1.458;2023-11-18T04:36:30;17.48;;;10.23;;
49722;SDS011;43484;43.608;1.458;2023-11-18T04:39:00;18.38;;;9.65;;
49722;SDS011;43484;43.608;1.458;2023-11-18T04:41:27;17.67;;;8.82;;
49722;SDS011;43484;43.608;1.458;2023-11-18T04:43:54;12.50;;;8.55;;
49722;SDS011;43484;43.608;1.458;2023-11-18T04:46:21;21.95;;;9.60;;
49722;SDS011;43484;43.608;1.458;2023-11-18T04:48:48;14.82;;;7.95;;
49722;SDS011;43484;43.608;1.458;2023-11-18T04:51:15;14.82;;;8.20;;
49722;SDS011;43484;43.608;1.458;2023-11-18T04:53:43;22.45;;;12.43;;
49722;SDS011;43484;43.608;1.458;2023-11-18T04:56:11;18.73;;;8.43;;
49722;SDS011;43484;43.608;1.458;2023-11-18T04:58:38;19.00;;;8.68;;
49722;SDS011;43484;43.608;1.458;2023-11-18T05:01:05;11.63;;;7.25;;
49722;SDS011;43484;43.608;1.458;2023-11-18T05:03:32;17.77;;;7.68;;
49722;SDS011;43484;43.608;1.458;2023-11-18T05:05:59;14.02;;;7.70;;
49722;SDS011;43484;43.608;1.458;2023-11-18T05:08:26;13.30;;;7.47;;
49722;SDS011;43484;43.608;1.458;2023-11-18T05:10:53;17.60;;;8.55;;
49722;SDS011;43484;43.608;1.458;2023-11-18T05:13:20;13.57;;;8.15;;
49722;SDS011;43484;43.608;1.458;2023-11-18T05:15:48;16.20;;;8.27;;
49722;SDS011;43484;43.608;1.458;2023-11-18T05:18:16;14.57;;;8.27;;
49722;SDS011;43484;43.608;1.458;2023-11-18T05:20:43;11.55;;;8.27;;
49722;SDS011;43484;43.608;1.458;2023-11-18T05:23:11;13.15;;;8.48;;
49722;SDS011;43484;43.608;1.458;2023-11-18T05:25:42;21.05;;;8.65;;
49722;SDS011;43484;43.608;1.458;2023-11-18T05:28:12;16.77;;;8.55;;
49722;SDS011;43484;43.608;1.458;2023-11-18T05:30:41;19.13;;;8.65;;
49722;SDS011;43484;43.608;1.458;2023-11-18T05:33:10;16.17;;;7.85;;
49722;SDS011;43484;43.608;1.458;2023-11-18T05:35:41;16.00;;;8.32;;
49722;SDS011;43484;43.608;1.458;2023-11-18T05:38:15;14.38;;;8.50;;
49722;SDS011;43484;43.608;1.458;2023-11-18T05:40:45;14.85;;;8.18;;
49722;SDS011;43484;43.608;1.458;2023-11-18T05:43:30;16.27;;;7.82;;
49722;SDS011;43484;43.608;1.458;2023-11-18T05:46:03;12.40;;;7.60;;
49722;SDS011;43484;43.608;1.458;2023-11-18T05:48:49;10.23;;;7.35;;
49722;SDS011;43484;43.608;1.458;2023-11-18T05:51:20;11.45;;;7.68;;
49722;SDS011;43484;43.608;1.458;2023-11-18T05:56:19;16.88;;;7.53;;
49722;SDS011;43484;43.608;1.458;2023-11-18T05:58:50;15.52;;;7.30;;
49722;SDS011;43484;43.608;1.458;2023-11-18T06:01:17;16.45;;;8.38;;
49722;SDS011;43484;43.608;1.458;2023-11-18T06:03:45;17.60;;;7.95;;
49722;SDS011;43484;43.608;1.458;2023-11-18T06:06:12;17.60;;;7.65;;
49722;SDS011;43484;43.608;1.458;2023-11-18T06:08:49;16.20;;;7.90;;
49722;SDS011;43484;43.608;1.458;2023-11-18T06:11:18;17.15;;;6.78;;
49722;SDS011;43484;43.608;1.458;2023-11-18T06:13:46;17.08;;;7.50;;
49722;SDS011;43484;43.608;1.458;2023-11-18T06:16:15;12.75;;;7.25;;
49722;SDS011;43484;43.608;1.458;2023-11-18T06:18:43;17.42;;;6.63;;
49722;SDS011;43484;43.608;1.458;2023-11-18T06:21:11;14.57;;;6.75;;
49722;SDS011;43484;43.608;1.458;2023-11-18T06:23:42;13.68;;;7.47;;
49722;SDS011;43484;43.608;1.458;2023-11-18T06:26:09;14.05;;;7.05;;
49722;SDS011;43484;43.608;1.458;2023-11-18T06:28:40;20.27;;;7.00;;
49722;SDS011;43484;43.608;1.458;2023-11-18T06:31:07;15.65;;;7.53;;
49722;SDS011;43484;43.608;1.458;2023-11-18T06:33:38;17.48;;;7.72;;
49722;SDS011;43484;43.608;1.458;2023-11-18T06:36:10;17.10;;;7.35;;
49722;SDS011;43484;43.608;1.458;2023-11-18T06:38:49;12.88;;;6.63;;
49722;SDS011;43484;43.608;1.458;2023-11-18T06:41:21;15.02;;;7.72;;
49722;SDS011;43484;43.608;1.458;2023-11-18T06:44:03;15.60;;;7.68;;
49722;SDS011;43484;43.608;1.458;2023-11-18T06:46:38;15.75;;;7.72;;
49722;SDS011;43484;43.608;1.458;2023-11-18T06:49:07;11.20;;;7.20;;
49722;SDS011;43484;43.608;1.458;2023-11-18T06:51:37;13.32;;;6.97;;
49722;SDS011;43484;43.608;1.458;2023-11-18T06:54:05;18.38;;;7.50;;
49722;SDS011;43484;43.608;1.458;2023-11-18T06:56:37;15.18;;;6.13;;
49722;SDS011;43484;43.608;1.458;2023-11-18T06:59:05;14.02;;;5.22;;
49722;SDS011;43484;43.608;1.458;2023-11-18T07:01:33;10.70;;;4.63;;
49722;SDS011;43484;43.608;1.458;2023-11-18T07:04:02;15.45;;;5.07;;
49722;SDS011;43484;43.608;1.458;2023-11-18T07:06:29;10.18;;;4.88;;
49722;SDS011;43484;43.608;1.458;2023-11-18T07:08:55;8.75;;;4.95;;
49722;SDS011;43484;43.608;1.458;2023-11-18T07:11:26;12.63;;;4.28;;
49722;SDS011;43484;43.608;1.458;2023-11-18T07:13:54;9.85;;;4.82;;
49722;SDS011;43484;43.608;1.458;2023-11-18T07:16:25;13.57;;;6.07;;
49722;SDS011;43484;43.608;1.458;2023-11-18T07:18:53;10.98;;;5.25;;
49722;SDS011;43484;43.608;1.458;2023-11-18T07:21:19;8.85;;;5.50;;
49722;SDS011;43484;43.608;1.458;2023-11-18T07:23:46;11.07;;;5.35;;
49722;SDS011;43484;43.608;1.458;2023-11-18T07:26:13;14.23;;;5.60;;
49722;SDS011;43484;43.608;1.458;2023-11-18T07:28:42;11.48;;;5.50;;
49722;SDS011;43484;43.608;1.458;2023-11-18T07:31:10;9.52;;;5.72;;
49722;SDS011;43484;43.608;1.458;2023-11-18T07:33:37;14.95;;;6.18;;
49722;SDS011;43484;43.608;1.458;2023-11-18T07:36:07;8.65;;;5.70;;
49722;SDS011;43484;43.608;1.458;2023-11-18T07:38:37;11.90;;;4.55;;
49722;SDS011;43484;43.608;1.458;2023-11-18T07:41:04;13.23;;;5.20;;
49722;SDS011;43484;43.608;1.458;2023-11-18T07:43:35;10.88;;;5.72;;
49722;SDS011;43484;43.608;1.458;2023-11-18T07:46:06;11.57;;;6.10;;
49722;SDS011;43484;43.608;1.458;2023-11-18T07:48:34;11.02;;;5.95;;
49722;SDS011;43484;43.608;1.458;2023-11-18T07:51:01;10.57;;;5.88;;
49722;SDS011;43484;43.608;1.458;2023-11-18T07:53:28;11.57;;;6.13;;
49722;SDS011;43484;43.608;1.458;2023-11-18T07:55:56;15.95;;;5.90;;
49722;SDS011;43484;43.608;1.458;2023-11-18T07:58:22;10.20;;;5.53;;
49722;SDS011;43484;43.608;1.458;2023-11-18T08:00:49;14.70;;;5.47;;
49722;SDS011;43484;43.608;1.458;2023-11-18T08:03:16;15.38;;;5.60;;
49722;SDS011;43484;43.608;1.458;2023-11-18T08:05:44;12.25;;;6.10;;
49722;SDS011;43484;43.608;1.458;2023-11-18T08:08:14;10.65;;;5.63;;
49722;SDS011;43484;43.608;1.458;2023-11-18T08:10:44;8.15;;;4.28;;
49722;SDS011;43484;43.608;1.458;2023-11-18T08:13:11;12.77;;;5.63;;
49722;SDS011;43484;43.608;1.458;2023-11-18T08:15:40;11.10;;;4.75;;
49722;SDS011;43484;43.608;1.458;2023-11-18T08:18:08;9.98;;;5.57;;
49722;SDS011;43484;43.608;1.458;2023-11-18T08:20:38;13.93;;;4.97;;
49722;SDS011;43484;43.608;1.458;2023-11-18T08:23:04;10.43;;;5.18;;
49722;SDS011;43484;43.608;1.458;2023-11-18T08:25:31;10.88;;;4.45;;
49722;SDS011;43484;43.608;1.458;2023-11-18T08:28:06;9.20;;;4.68;;
49722;SDS011;43484;43.608;1.458;2023-11-18T08:30:34;9.23;;;4.93;;
49722;SDS011;43484;43.608;1.458;2023-11-18T08:33:03;7.88;;;4.60;;
49722;SDS011;43484;43.608;1.458;2023-11-18T08:35:32;11.80;;;5.18;;
49722;SDS011;43484;43.608;1.458;2023-11-18T08:37:58;8.95;;;4.68;;
49722;SDS011;43484;43.608;1.458;2023-11-18T08:40:27;10.23;;;5.35;;
49722;SDS011;43484;43.608;1.458;2023-11-18T08:42:53;13.60;;;5.68;;
49722;SDS011;43484;43.608;1.458;2023-11-18T08:45:23;10.40;;;5.55;;
49722;SDS011;43484;43.608;1.458;2023-11-18T08:48:00;11.65;;;7.53;;
49722;SDS011;43484;43.608;1.458;2023-11-18T08:50:30;14.30;;;8.60;;
49722;SDS011;43484;43.608;1.458;2023-11-18T08:52:57;16.25;;;8.35;;
49722;SDS011;43484;43.608;1.458;2023-11-18T08:55:28;15.15;;;7.93;;
49722;SDS011;43484;43.608;1.458;2023-11-18T08:58:08;12.18;;;6.32;;
49722;SDS011;43484;43.608;1.458;2023-11-18T09:00:46;7.75;;;4.35;;
49722;SDS011;43484;43.608;1.458;2023-11-18T09:03:31;14.77;;;7.40;;
49722;SDS011;43484;43.608;1.458;2023-11-18T09:06:03;8.68;;;5.90;;
49722;SDS011;43484;43.608;1.458;2023-11-18T09:09:50;15.00;;;5.95;;
49722;SDS011;43484;43.608;1.458;2023-11-18T09:12:19;10.88;;;4.15;;
49722;SDS011;43484;43.608;1.458;2023-11-18T09:14:46;9.20;;;4.28;;
49722;SDS011;43484;43.608;1.458;2023-11-18T09:17:13;7.75;;;3.38;;
49722;SDS011;43484;43.608;1.458;2023-11-18T09:19:41;13.68;;;6.03;;
49722;SDS011;43484;43.608;1.458;2023-11-18T09:22:07;14.38;;;5.20;;
49722;SDS011;43484;43.608;1.458;2023-11-18T09:24:37;8.70;;;4.93;;
49722;SDS011;43484;43.608;1.458;2023-11-18T09:27:05;8.43;;;5.10;;
49722;SDS011;43484;43.608;1.458;2023-11-18T09:29:32;11.15;;;5.43;;
49722;SDS011;43484;43.608;1.458;2023-11-18T09:32:00;9.60;;;4.70;;
49722;SDS011;43484;43.608;1.458;2023-11-18T09:34:32;7.40;;;4.28;;
49722;SDS011;43484;43.608;1.458;2023-11-18T09:36:59;13.98;;;5.10;;
49722;SDS011;43484;43.608;1.458;2023-11-18T09:39:26;14.13;;;5.15;;
49722;SDS011;43484;43.608;1.458;2023-11-18T09:41:56;10.93;;;5.07;;
49722;SDS011;43484;43.608;1.458;2023-11-18T09:45:47;14.05;;;4.43;;
49722;SDS011;43484;43.608;1.458;2023-11-18T09:48:17;7.78;;;3.50;;
49722;SDS011;43484;43.608;1.458;2023-11-18T09:50:47;8.93;;;3.97;;
49722;SDS011;43484;43.608;1.458;2023-11-18T09:53:16;11.63;;;3.20;;
49722;SDS011;43484;43.608;1.458;2023-11-18T09:56:07;6.95;;;2.97;;
49722;SDS011;43484;43.608;1.458;2023-11-18T09:58:56;5.97;;;2.53;;
49722;SDS011;43484;43.608;1.458;2023-11-18T10:01:34;43.88;;;28.00;;
49722;SDS011;43484;43.608;1.458;2023-11-18T10:04:05;8.88;;;3.03;;
49722;SDS011;43484;43.608;1.458;2023-11-18T10:06:35;7.47;;;1.85;;
49722;SDS011;43484;43.608;1.458;2023-11-18T10:09:02;6.78;;;1.85;;
49722;SDS011;43484;43.608;1.458;2023-11-18T10:11:44;4.03;;;1.40;;
49722;SDS011;43484;43.608;1.458;2023-11-18T10:14:14;3.58;;;1.55;;
49722;SDS011;43484;43.608;1.458;2023-11-18T10:16:44;3.90;;;1.73;;
49722;SDS011;43484;43.608;1.458;2023-11-18T10:19:14;5.40;;;1.75;;
49722;SDS011;43484;43.608;1.458;2023-11-18T10:21:45;3.70;;;1.73;;
49722;SDS011;43484;43.608;1.458;2023-11-18T10:24:15;4.35;;;1.55;;
49722;SDS011;43484;43.608;1.458;2023-11-18T10:26:54;5.70;;;1.70;;
49722;SDS011;43484;43.608;1.458;2023-11-18T10:29:24;5.78;;;1.50;;
49722;SDS011;43484;43.608;1.458;2023-11-18T10:32:04;5.88;;;1.40;;
49722;SDS011;43484;43.608;1.458;2023-11-18T10:34:36;5.35;;;1.42;;
49722;SDS011;43484;43.608;1.458;2023-11-18T10:37:04;2.42;;;0.82;;
49722;SDS011;43484;43.608;1.458;2023-11-18T10:39:33;1.95;;;1.20;;
49722;SDS011;43484;43.608;1.458;2023-11-18T10:42:01;4.50;;;1.05;;
49722;SDS011;43484;43.608;1.458;2023-11-18T10:44:29;6.78;;;1.00;;
49722;SDS011;43484;43.608;1.458;2023-11-18T10:46:56;3.78;;;0.93;;
49722;SDS011;43484;43.608;1.458;2023-11-18T10:49:26;6.88;;;0.60;;
49722;SDS011;43484;43.608;1.458;2023-11-18T10:52:04;2.78;;;0.80;;
49722;SDS011;43484;43.608;1.458;2023-11-18T10:54:35;2.90;;;0.70;;
49722;SDS011;43484;43.608;1.458;2023-11-18T10:57:04;5.03;;;0.80;;
49722;SDS011;43484;43.608;1.458;2023-11-18T10:59:34;6.10;;;1.20;;
49722;SDS011;43484;43.608;1.458;2023-11-18T11:02:17;3.63;;;0.90;;
49722;SDS011;43484;43.608;1.458;2023-11-18T11:04:45;5.10;;;1.20;;
49722;SDS011;43484;43.608;1.458;2023-11-18T11:07:12;3.60;;;0.90;;
49722;SDS011;43484;43.608;1.458;2023-11-18T11:09:40;2.72;;;0.70;;
49722;SDS011;43484;43.608;1.458;2023-11-18T11:12:11;10.32;;;6.32;;
49722;SDS011;43484;43.608;1.458;2023-11-18T11:14:46;22.67;;;10.63;;
49722;SDS011;43484;43.608;1.458;2023-11-18T11:17:20;6.57;;;2.95;;
49722;SDS011;43484;43.608;1.458;2023-11-18T11:20:06;5.43;;;3.00;;
49722;SDS011;43484;43.608;1.458;2023-11-18T11:28:20;6.05;;;3.08;;
49722;SDS011;43484;43.608;1.458;2023-11-18T11:36:46;3.97;;;1.25;;
49722;SDS011;43484;43.608;1.458;2023-11-18T11:39:17;5.70;;;2.67;;
49722;SDS011;43484;43.608;1.458;2023-11-18T11:41:52;8.80;;;3.10;;
49722;SDS011;43484;43.608;1.458;2023-11-18T11:44:25;3.38;;;1.80;;
49722;SDS011;43484;43.608;1.458;2023-11-18T11:46:58;5.72;;;1.67;;
49722;SDS011;43484;43.608;1.458;2023-11-18T11:49:35;5.55;;;2.63;;
49722;SDS011;43484;43.608;1.458;2023-11-18T11:52:11;6.53;;;3.28;;
49722;SDS011;43484;43.608;1.458;2023-11-18T11:54:45;2.78;;;1.42;;
49722;SDS011;43484;43.608;1.458;2023-11-18T11:57:22;7.35;;;2.28;;
49722;SDS011;43484;43.608;1.458;2023-11-18T12:02:21;5.78;;;2.05;;
49722;SDS011;43484;43.608;1.458;2023-11-18T12:04:55;5.03;;;2.00;;
49722;SDS011;43484;43.608;1.458;2023-11-18T12:07:25;5.35;;;1.90;;
49722;SDS011;43484;43.608;1.458;2023-11-18T12:09:57;6.30;;;1.33;;
49722;SDS011;43484;43.608;1.458;2023-11-18T12:12:25;4.68;;;1.48;;
49722;SDS011;43484;43.608;1.458;2023-11-18T12:14:59;5.15;;;1.60;;
49722;SDS011;43484;43.608;1.458;2023-11-18T12:23:21;3.33;;;0.98;;
49722;SDS011;43484;43.608;1.458;2023-11-18T12:25:51;2.22;;;1.10;;
49722;SDS011;43484;43.608;1.458;2023-11-18T12:28:30;6.30;;;1.73;;
49722;SDS011;43484;43.608;1.458;2023-11-18T12:31:02;3.63;;;1.17;;
49722;SDS011;43484;43.608;1.458;2023-11-18T12:42:01;2.33;;;0.98;;
49722;SDS011;43484;43.608;1.458;2023-11-18T12:47:47;2.45;;;0.88;;
49722;SDS011;43484;43.608;1.458;2023-11-18T12:50:15;4.10;;;1.20;;
49722;SDS011;43484;43.608;1.458;2023-11-18T12:52:51;4.07;;;1.10;;
49722;SDS011;43484;43.608;1.458;2023-11-18T12:55:18;3.88;;;1.08;;
49722;SDS011;43484;43.608;1.458;2023-11-18T12:57:46;4.80;;;1.00;;
49722;SDS011;43484;43.608;1.458;2023-11-18T13:00:17;3.55;;;1.10;;
49722;SDS011;43484;43.608;1.458;2023-11-18T13:02:54;5.93;;;1.40;;
49722;SDS011;43484;43.608;1.458;2023-11-18T13:05:21;2.90;;;1.10;;
49722;SDS011;43484;43.608;1.458;2023-11-18T13:07:48;3.65;;;1.20;;
49722;SDS011;43484;43.608;1.458;2023-11-18T13:10:15;6.57;;;1.52;;
49722;SDS011;43484;43.608;1.458;2023-11-18T13:12:43;5.20;;;1.00;;
49722;SDS011;43484;43.608;1.458;2023-11-18T13:15:11;5.10;;;1.30;;
49722;SDS011;43484;43.608;1.458;2023-11-18T13:17:38;6.55;;;1.83;;
49722;SDS011;43484;43.608;1.458;2023-11-18T13:20:11;1.88;;;1.00;;
49722;SDS011;43484;43.608;1.458;2023-11-18T13:22:44;2.83;;;1.23;;
49722;SDS011;43484;43.608;1.458;2023-11-18T13:25:14;3.75;;;1.58;;
49722;SDS011;43484;43.608;1.458;2023-11-18T13:27:41;5.68;;;1.42;;
49722;SDS011;43484;43.608;1.458;2023-11-18T13:30:08;7.15;;;1.75;;
49722;SDS011;43484;43.608;1.458;2023-11-18T13:32:42;6.13;;;1.55;;
49722;SDS011;43484;43.608;1.458;2023-11-18T13:35:12;4.85;;;1.13;;
49722;SDS011;43484;43.608;1.458;2023-11-18T13:37:46;3.63;;;1.08;;
49722;SDS011;43484;43.608;1.458;2023-11-18T13:40:15;4.35;;;2.15;;
49722;SDS011;43484;43.608;1.458;2023-11-18T13:42:44;7.38;;;1.58;;
49722;SDS011;43484;43.608;1.458;2023-11-18T13:45:14;7.95;;;1.90;;
49722;SDS011;43484;43.608;1.458;2023-11-18T13:48:01;2.88;;;1.20;;
49722;SDS011;43484;43.608;1.458;2023-11-18T13:50:28;5.43;;;1.45;;
49722;SDS011;43484;43.608;1.458;2023-11-18T13:52:58;2.78;;;1.20;;
49722;SDS011;43484;43.608;1.458;2023-11-18T13:55:25;3.58;;;1.08;;
49722;SDS011;43484;43.608;1.458;2023-11-18T13:57:54;4.63;;;1.48;;
49722;SDS011;43484;43.608;1.458;2023-11-18T14:00:24;7.30;;;1.40;;
49722;SDS011;43484;43.608;1.458;2023-11-18T14:02:57;7.93;;;1.25;;
49722;SDS011;43484;43.608;1.458;2023-11-18T14:05:24;6.20;;;1.17;;
49722;SDS011;43484;43.608;1.458;2023-11-18T14:07:52;8.13;;;1.60;;
49722;SDS011;43484;43.608;1.458;2023-11-18T14:10:22;5.18;;;1.55;;
49722;SDS011;43484;43.608;1.458;2023-11-18T14:13:14;2.92;;;1.10;;
49722;SDS011;43484;43.608;1.458;2023-11-18T14:15:43;7.43;;;1.65;;
49722;SDS011;43484;43.608;1.458;2023-11-18T14:18:11;3.90;;;1.92;;
49722;SDS011;43484;43.608;1.458;2023-11-18T14:20:39;5.38;;;1.42;;
49722;SDS011;43484;43.608;1.458;2023-11-18T14:23:06;6.10;;;1.67;;
49722;SDS011;43484;43.608;1.458;2023-11-18T14:25:35;7.03;;;1.55;;
49722;SDS011;43484;43.608;1.458;2023-11-18T14:28:01;2.20;;;1.05;;
49722;SDS011;43484;43.608;1.458;2023-11-18T14:30:32;5.82;;;1.60;;
49722;SDS011;43484;43.608;1.458;2023-11-18T14:32:59;6.22;;;1.63;;
49722;SDS011;43484;43.608;1.458;2023-11-18T14:35:26;4.32;;;1.42;;
49722;SDS011;43484;43.608;1.458;2023-11-18T14:37:55;2.28;;;1.17;;
49722;SDS011;43484;43.608;1.458;2023-11-18T14:40:22;5.28;;;1.65;;
49722;SDS011;43484;43.608;1.458;2023-11-18T14:42:50;5.40;;;1.58;;
49722;SDS011;43484;43.608;1.458;2023-11-18T14:45:18;5.85;;;1.67;;
49722;SDS011;43484;43.608;1.458;2023-11-18T14:47:45;6.50;;;1.58;;
49722;SDS011;43484;43.608;1.458;2023-11-18T14:50:19;3.60;;;1.30;;
49722;SDS011;43484;43.608;1.458;2023-11-18T14:52:50;3.53;;;1.58;;
49722;SDS011;43484;43.608;1.458;2023-11-18T14:55:27;5.70;;;1.85;;
49722;SDS011;43484;43.608;1.458;2023-11-18T14:57:57;2.45;;;1.17;;
49722;SDS011;43484;43.608;1.458;2023-11-18T15:00:24;3.70;;;1.25;;
49722;SDS011;43484;43.608;1.458;2023-11-18T15:02:54;4.53;;;1.88;;
49722;SDS011;43484;43.608;1.458;2023-11-18T15:05:25;6.30;;;1.67;;
49722;SDS011;43484;43.608;1.458;2023-11-18T15:07:54;4.05;;;1.67;;
49722;SDS011;43484;43.608;1.458;2023-11-18T15:10:22;7.57;;;1.90;;
49722;SDS011;43484;43.608;1.458;2023-11-18T15:12:51;2.42;;;1.40;;
49722;SDS011;43484;43.608;1.458;2023-11-18T15:15:29;4.10;;;1.23;;
49722;SDS011;43484;43.608;1.458;2023-11-18T15:18:02;3.85;;;1.83;;
49722;SDS011;43484;43.608;1.458;2023-11-18T15:20:30;7.70;;;1.52;;
49722;SDS011;43484;43.608;1.458;2023-11-18T15:22:57;3.75;;;1.20;;
49722;SDS011;43484;43.608;1.458;2023-11-18T15:25:24;2.35;;;1.15;;
49722;SDS011;43484;43.608;1.458;2023-11-18T15:27:51;4.35;;;1.10;;
49722;SDS011;43484;43.608;1.458;2023-11-18T15:30:18;2.88;;;1.42;;
49722;SDS011;43484;43.608;1.458;2023-11-18T15:32:45;8.13;;;1.85;;
49722;SDS011;43484;43.608;1.458;2023-11-18T15:35:13;4.20;;;1.65;;
49722;SDS011;43484;43.608;1.458;2023-11-18T15:37:43;4.50;;;1.05;;